createdAt,value
2018-01-01T00:01:14.551Z,79.70
2018-01-01T00:03:42.102Z,78.60
2018-01-01T00:06:09.607Z,75.60
2018-01-01T00:08:37.329Z,76.60
2018-01-01T00:11:04.831Z,78.30
2018-01-01T00:13:32.336Z,78.30
2018-01-01T00:16:00.674Z,85.40
2018-01-01T00:18:28.186Z,85.40
2018-01-01T00:20:55.746Z,86.60
2018-01-01T00:23:23.248Z,87.30
2018-01-01T00:25:51.559Z,90.10
2018-01-01T00:28:19.074Z,90.10
2018-01-01T00:30:46.631Z,90.20
2018-01-01T00:33:14.139Z,90.50
2018-01-01T00:35:41.648Z,90.80
2018-01-01T00:38:09.195Z,90.50
2018-01-01T00:40:37.467Z,91.00
2018-01-01T00:43:05.016Z,91.00
2018-01-01T00:45:32.518Z,91.30
2018-01-01T00:48:00.068Z,91.10
2018-01-01T00:50:27.585Z,91.10
2018-01-01T00:52:55.141Z,91.20
2018-01-01T00:55:23.423Z,91.20
2018-01-01T00:57:51.739Z,91.10
2018-01-01T01:00:19.247Z,91.10
2018-01-01T01:02:46.784Z,91.00
2018-01-01T01:05:14.288Z,90.60
2018-01-01T01:07:41.862Z,90.30
2018-01-01T01:10:09.374Z,90.50
2018-01-01T01:12:37.643Z,90.80
2018-01-01T01:15:05.175Z,90.80
2018-01-01T01:17:32.714Z,90.90
2018-01-01T01:20:01.020Z,91.00
2018-01-01T01:22:28.537Z,91.00
2018-01-01T01:24:56.087Z,91.10
2018-01-01T01:27:23.600Z,90.90
2018-01-01T01:29:51.103Z,91.00
2018-01-01T01:32:18.651Z,90.80
2018-01-01T01:34:46.919Z,90.80
2018-01-01T01:37:14.459Z,90.80
2018-01-01T01:39:41.959Z,90.60
2018-01-01T01:42:09.507Z,90.30
2018-01-01T01:44:37.018Z,91.10
2018-01-01T01:47:04.623Z,92.50
2018-01-01T01:49:32.127Z,92.80
2018-01-01T01:52:00.935Z,93.00
2018-01-01T01:54:28.443Z,92.40
2018-01-01T01:56:55.950Z,92.60
2018-01-01T01:59:23.547Z,93.30
2018-01-01T02:01:51.047Z,93.80
2018-01-01T02:04:18.589Z,93.40
2018-01-01T02:06:46.099Z,92.70
2018-01-01T02:09:13.652Z,92.30
2018-01-01T02:11:41.160Z,92.00
2018-01-01T02:14:08.712Z,92.50
2018-01-01T02:16:36.219Z,92.70
2018-01-01T02:19:03.812Z,92.50
2018-01-01T02:21:31.320Z,92.70
2018-01-01T02:23:58.868Z,92.70
2018-01-01T02:26:26.422Z,92.70
2018-01-01T02:28:53.926Z,92.70
2018-01-01T02:31:21.472Z,93.00
2018-01-01T02:33:48.976Z,93.10
2018-01-01T02:36:16.516Z,92.50
2018-01-01T02:38:44.085Z,92.20
2018-01-01T02:41:11.626Z,92.20
2018-01-01T02:43:39.168Z,92.10
2018-01-01T02:46:06.718Z,92.10
2018-01-01T02:48:34.232Z,91.50
2018-01-01T02:51:02.516Z,90.30
2018-01-01T02:53:30.064Z,90.30
2018-01-01T02:55:57.572Z,88.40
2018-01-01T02:58:25.114Z,87.70
2018-01-01T03:00:52.735Z,86.30
2018-01-01T03:03:20.283Z,86.40
2018-01-01T03:05:48.552Z,83.40
2018-01-01T03:08:16.092Z,83.40
2018-01-01T03:10:43.596Z,84.30
2018-01-01T03:13:11.139Z,83.90
2018-01-01T03:15:38.651Z,82.40
2018-01-01T03:18:06.244Z,81.50
2018-01-01T03:20:34.515Z,80.30
2018-01-01T03:23:03.796Z,80.30
2018-01-01T03:25:31.351Z,80.30
2018-01-01T03:27:58.896Z,80.10
2018-01-01T03:30:26.408Z,80.30
2018-01-01T03:32:53.951Z,79.90
2018-01-01T03:35:21.518Z,80.00
2018-01-01T03:37:49.032Z,79.50
2018-01-01T03:40:16.572Z,80.20
2018-01-01T03:42:44.087Z,80.00
2018-01-01T03:45:11.635Z,79.50
2018-01-01T03:47:39.144Z,78.70
2018-01-01T03:50:06.700Z,79.40
2018-01-01T03:52:34.215Z,79.90
2018-01-01T03:55:01.724Z,78.70
2018-01-01T03:57:29.260Z,79.20
2018-01-01T03:59:56.776Z,78.70
2018-01-01T04:02:24.326Z,78.50
2018-01-01T04:04:51.833Z,78.10
2018-01-01T04:07:19.384Z,78.10
2018-01-01T04:09:46.895Z,78.10
2018-01-01T04:12:15.200Z,79.30
2018-01-01T04:14:42.700Z,79.30
2018-01-01T04:17:10.203Z,80.00
2018-01-01T04:19:37.743Z,78.10
2018-01-01T04:22:05.252Z,78.00
2018-01-01T04:24:32.792Z,77.70
2018-01-01T04:27:00.298Z,77.00
2018-01-01T04:29:27.854Z,77.40
2018-01-01T04:31:55.452Z,77.10
2018-01-01T04:34:23.013Z,77.70
2018-01-01T04:36:50.530Z,77.10
2018-01-01T04:39:18.089Z,76.70
2018-01-01T04:41:46.367Z,75.50
2018-01-01T04:44:14.644Z,75.30
2018-01-01T04:46:42.198Z,75.20
2018-01-01T04:49:09.715Z,75.00
2018-01-01T04:51:37.260Z,75.20
2018-01-01T04:54:04.764Z,74.30
2018-01-01T04:56:32.307Z,74.50
2018-01-01T04:58:59.821Z,74.90
2018-01-01T05:01:27.396Z,75.00
2018-01-01T05:03:54.927Z,75.20
2018-01-01T05:06:22.448Z,74.90
2018-01-01T05:08:49.994Z,74.80
2018-01-01T05:11:17.499Z,75.30
2018-01-01T05:13:45.053Z,76.60
2018-01-01T05:16:12.727Z,77.50
2018-01-01T05:18:40.275Z,79.00
2018-01-01T05:21:08.543Z,80.20
2018-01-01T05:23:36.084Z,80.20
2018-01-01T05:26:03.608Z,80.10
2018-01-01T05:28:31.923Z,79.90
2018-01-01T05:30:59.429Z,79.90
2018-01-01T05:33:26.937Z,80.70
2018-01-01T05:35:55.251Z,81.70
2018-01-01T05:38:22.760Z,81.70
2018-01-01T05:40:50.306Z,81.20
2018-01-01T05:43:17.846Z,81.40
2018-01-01T05:45:46.161Z,82.20
2018-01-01T05:48:13.686Z,82.10
2018-01-01T05:50:41.231Z,82.20
2018-01-01T05:53:08.744Z,82.10
2018-01-01T05:55:37.076Z,83.80
2018-01-01T05:58:04.588Z,83.80
2018-01-01T06:00:32.108Z,84.70
2018-01-01T06:02:59.651Z,85.40
2018-01-01T06:05:27.164Z,85.50
2018-01-01T06:07:54.716Z,85.90
2018-01-01T06:10:22.243Z,86.10
2018-01-01T06:12:49.809Z,85.90
2018-01-01T06:15:17.329Z,86.10
2018-01-01T06:17:44.847Z,85.80
2018-01-01T06:20:12.401Z,86.00
2018-01-01T06:22:39.911Z,85.80
2018-01-01T06:25:07.483Z,86.30
2018-01-01T06:27:34.988Z,86.90
2018-01-01T06:30:02.541Z,87.10
2018-01-01T06:32:30.834Z,86.60
2018-01-01T06:34:59.172Z,87.20
2018-01-01T06:37:26.691Z,87.20
2018-01-01T06:39:55.020Z,87.50
2018-01-01T06:42:22.542Z,87.50
2018-01-01T06:44:50.083Z,88.60
2018-01-01T06:47:17.624Z,88.60
2018-01-01T06:49:45.138Z,89.10
2018-01-01T06:52:12.700Z,89.60
2018-01-01T06:54:40.257Z,90.20
2018-01-01T06:57:08.593Z,90.90
2018-01-01T06:59:36.103Z,90.50
2018-01-01T07:02:03.652Z,90.40
2018-01-01T07:04:31.933Z,90.10
2018-01-01T07:07:00.248Z,90.10
2018-01-01T07:09:27.764Z,90.10
2018-01-01T07:11:55.343Z,89.40
2018-01-01T07:14:22.868Z,89.90
2018-01-01T07:16:50.380Z,90.10
2018-01-01T07:19:17.923Z,90.00
2018-01-01T07:21:45.490Z,89.50
2018-01-01T07:24:13.036Z,89.00
2018-01-01T07:26:41.308Z,88.20
2018-01-01T07:29:08.844Z,88.20
2018-01-01T07:31:36.364Z,87.90
2018-01-01T07:34:04.706Z,86.50
2018-01-01T07:36:32.219Z,86.50
2018-01-01T07:38:59.812Z,86.60
2018-01-01T07:41:28.094Z,86.50
2018-01-01T07:43:56.365Z,85.80
2018-01-01T07:46:23.904Z,85.70
2018-01-01T07:48:51.412Z,85.60
2018-01-01T07:51:18.968Z,85.40
2018-01-01T07:53:46.478Z,84.90
2018-01-01T07:56:14.796Z,83.80
2018-01-01T07:58:42.307Z,83.80
2018-01-01T08:01:09.856Z,83.90
2018-01-01T08:03:37.360Z,83.50
2018-01-01T08:06:05.651Z,82.50
2018-01-01T08:08:33.225Z,82.30
2018-01-01T08:11:00.758Z,82.20
2018-01-01T08:13:28.348Z,81.00
2018-01-01T08:15:55.868Z,80.80
2018-01-01T08:18:23.423Z,80.20
2018-01-01T08:20:51.767Z,80.30
2018-01-01T08:23:20.099Z,80.20
2018-01-01T08:25:48.381Z,80.00
2018-01-01T08:28:15.892Z,80.00
2018-01-01T08:30:43.464Z,80.50
2018-01-01T08:33:10.976Z,80.50
2018-01-01T08:35:38.537Z,80.90
2018-01-01T08:38:06.049Z,81.10
2018-01-01T08:40:33.592Z,80.50
2018-01-01T08:43:01.118Z,80.90
2018-01-01T08:45:29.535Z,80.30
2018-01-01T08:47:57.865Z,79.10
2018-01-01T08:50:25.425Z,79.10
2018-01-01T08:52:52.932Z,79.50
2018-01-01T08:55:21.271Z,78.10
2018-01-01T08:57:48.801Z,78.10
2018-01-01T09:00:16.315Z,78.60
2018-01-01T09:02:43.876Z,78.70
2018-01-01T09:05:11.425Z,77.90
2018-01-01T09:07:38.968Z,77.50
2018-01-01T09:10:06.481Z,76.30
2018-01-01T09:12:34.031Z,76.30
2018-01-01T09:15:01.543Z,76.30
2018-01-01T09:17:29.101Z,76.20
2018-01-01T09:19:56.607Z,75.80
2018-01-01T09:22:24.180Z,76.40
2018-01-01T09:24:51.690Z,76.10
2018-01-01T09:27:19.963Z,75.20
2018-01-01T09:29:48.278Z,73.70
2018-01-01T09:32:15.791Z,73.70
2018-01-01T09:34:43.345Z,73.60
2018-01-01T09:37:10.876Z,74.10
2018-01-01T09:39:38.455Z,73.90
2018-01-01T09:42:06.726Z,74.10
2018-01-01T09:44:34.283Z,73.40
2018-01-01T09:47:01.809Z,69.00
2018-01-01T09:49:29.325Z,65.20
2018-01-01T09:51:56.879Z,60.50
2018-01-01T09:54:24.396Z,58.70
2018-01-01T09:56:52.719Z,53.70
2018-01-01T09:59:20.231Z,53.70
2018-01-01T10:01:47.784Z,54.00
2018-01-01T10:04:15.361Z,55.30
2018-01-01T10:06:42.922Z,54.50
2018-01-01T10:09:10.443Z,54.50
2018-01-01T10:11:37.981Z,53.20
2018-01-01T10:14:05.535Z,52.00
2018-01-01T10:16:33.048Z,50.10
2018-01-01T10:19:00.608Z,49.50
2018-01-01T10:21:28.140Z,48.40
2018-01-01T10:23:55.693Z,48.80
2018-01-01T10:26:23.226Z,49.00
2018-01-01T10:28:50.807Z,48.50
2018-01-01T10:31:19.104Z,46.40
2018-01-01T10:33:46.656Z,46.40
2018-01-01T10:36:14.174Z,47.20
2018-01-01T10:38:41.695Z,46.10
2018-01-01T10:41:09.436Z,45.90
2018-01-01T10:43:36.956Z,46.40
2018-01-01T10:46:04.515Z,46.10
2018-01-01T10:48:32.075Z,45.80
2018-01-01T10:51:00.448Z,45.00
2018-01-01T10:53:28.007Z,45.00
2018-01-01T10:55:55.697Z,46.00
2018-01-01T10:58:23.256Z,46.90
2018-01-01T11:00:50.844Z,47.40
2018-01-01T11:03:18.437Z,48.90
2018-01-01T11:05:45.947Z,49.20
2018-01-01T11:08:14.264Z,50.00
2018-01-01T11:10:41.779Z,49.90
2018-01-01T11:13:09.333Z,49.50
2018-01-01T11:15:36.856Z,50.10
2018-01-01T11:18:05.190Z,53.60
2018-01-01T11:20:32.708Z,53.60
2018-01-01T11:23:00.262Z,55.00
2018-01-01T11:25:27.775Z,56.20
2018-01-01T11:27:56.090Z,57.50
2018-01-01T11:30:23.600Z,57.50
2018-01-01T11:32:51.157Z,59.10
2018-01-01T11:35:18.712Z,58.50
2018-01-01T11:37:46.224Z,59.50
2018-01-01T11:40:13.780Z,59.80
2018-01-01T11:42:41.303Z,59.80
2018-01-01T11:45:08.863Z,60.10
2018-01-01T11:47:37.139Z,60.20
2018-01-01T11:50:05.455Z,59.90
2018-01-01T11:52:32.972Z,59.50
2018-01-01T11:55:00.521Z,60.20
2018-01-01T11:57:28.092Z,59.80
2018-01-01T11:59:55.649Z,60.50
2018-01-01T12:02:23.180Z,60.60
2018-01-01T12:04:50.735Z,61.20
2018-01-01T12:07:18.257Z,61.00
2018-01-01T12:09:45.768Z,60.90
2018-01-01T12:12:16.305Z,61.70
2018-01-01T12:14:40.951Z,61.30
2018-01-01T12:17:09.268Z,63.70
2018-01-01T12:19:36.781Z,63.70
2018-01-01T12:22:04.343Z,64.30
2018-01-01T12:24:31.856Z,64.80
2018-01-01T12:27:00.329Z,65.90
2018-01-01T12:29:27.840Z,65.40
2018-01-01T12:31:55.413Z,66.40
2018-01-01T12:34:22.963Z,67.30
2018-01-01T12:36:50.503Z,67.70
2018-01-01T12:39:18.059Z,68.00
2018-01-01T12:41:45.571Z,68.00
2018-01-01T12:44:13.108Z,68.50
2018-01-01T12:46:40.608Z,67.70
2018-01-01T12:49:08.150Z,67.60
2018-01-01T12:51:35.665Z,67.60
2018-01-01T12:54:03.237Z,67.60
2018-01-01T12:56:30.752Z,67.80
2018-01-01T12:58:58.296Z,67.80
2018-01-01T13:01:26.586Z,67.70
2018-01-01T13:03:54.916Z,67.20
2018-01-01T13:06:22.445Z,67.20
2018-01-01T13:08:50.785Z,67.70
2018-01-01T13:11:18.344Z,67.70
2018-01-01T13:13:45.909Z,68.80
2018-01-01T13:16:13.697Z,68.50
2018-01-01T13:18:41.264Z,68.50
2018-01-01T13:21:08.824Z,68.80
2018-01-01T13:23:36.340Z,68.70
2018-01-01T13:26:03.898Z,68.00
2018-01-01T13:28:31.411Z,67.80
2018-01-01T13:30:58.964Z,68.00
2018-01-01T13:33:27.036Z,68.20
2018-01-01T13:35:54.587Z,68.70
2018-01-01T13:38:22.101Z,68.20
2018-01-01T13:40:49.662Z,68.70
2018-01-01T13:43:17.183Z,68.60
2018-01-01T13:45:44.914Z,68.10
2018-01-01T13:48:12.439Z,68.50
2018-01-01T13:50:39.949Z,68.60
2018-01-01T13:53:07.499Z,69.50
2018-01-01T13:55:35.017Z,69.50
2018-01-01T13:58:02.568Z,69.70
2018-01-01T14:00:30.088Z,70.00
2018-01-01T14:02:57.636Z,70.00
2018-01-01T14:05:25.924Z,71.20
2018-01-01T14:07:53.489Z,71.10
2018-01-01T14:10:20.999Z,71.50
2018-01-01T14:12:48.560Z,72.00
2018-01-01T14:15:16.844Z,73.60
2018-01-01T14:17:45.181Z,73.20
2018-01-01T14:20:12.708Z,73.30
2018-01-01T14:22:40.284Z,73.20
2018-01-01T14:25:08.368Z,73.00
2018-01-01T14:27:35.935Z,73.50
2018-01-01T14:30:04.582Z,73.70
2018-01-01T14:32:32.124Z,74.30
2018-01-01T14:34:59.695Z,74.30
2018-01-01T14:37:27.208Z,74.70
2018-01-01T14:39:54.776Z,75.20
2018-01-01T14:42:22.334Z,75.70
2018-01-01T14:44:49.889Z,76.50
2018-01-01T14:47:17.404Z,76.00
2018-01-01T14:49:44.967Z,75.90
2018-01-01T14:52:12.492Z,76.20
2018-01-01T14:54:40.017Z,76.10
2018-01-01T14:57:07.571Z,76.10
2018-01-01T14:59:35.088Z,76.40
2018-01-01T15:02:03.401Z,76.30
2018-01-01T15:04:30.928Z,76.30
2018-01-01T15:06:58.490Z,76.90
2018-01-01T15:09:26.763Z,75.80
2018-01-01T15:11:54.312Z,75.80
2018-01-01T15:14:21.840Z,76.10
2018-01-01T15:16:49.418Z,75.90
2018-01-01T15:19:16.944Z,76.50
2018-01-01T15:21:44.541Z,76.30
2018-01-01T15:24:12.057Z,77.00
2018-01-01T15:26:40.341Z,77.20
2018-01-01T15:29:08.663Z,76.80
2018-01-01T15:31:36.191Z,76.80
2018-01-01T15:34:03.749Z,77.00
2018-01-01T15:36:31.267Z,77.80
2018-01-01T15:38:58.904Z,78.70
2018-01-01T15:41:26.432Z,79.60
2018-01-01T15:43:53.985Z,81.40
2018-01-01T15:46:21.513Z,81.60
2018-01-01T15:48:49.059Z,81.60
2018-01-01T15:51:16.620Z,80.90
2018-01-01T15:53:44.184Z,81.30
2018-01-01T15:56:12.476Z,82.90
2018-01-01T15:58:40.004Z,82.80
2018-01-01T16:01:07.560Z,83.30
2018-01-01T16:03:35.085Z,83.30
2018-01-01T16:06:02.650Z,82.50
2018-01-01T16:08:30.178Z,82.20
2018-01-01T16:10:57.747Z,83.00
2018-01-01T16:13:25.276Z,83.70
2018-01-01T16:15:52.793Z,83.80
2018-01-01T16:18:20.342Z,84.20
2018-01-01T16:20:47.861Z,84.80
2018-01-01T16:23:16.188Z,83.70
2018-01-01T16:25:43.707Z,83.70
2018-01-01T16:28:11.263Z,83.60
2018-01-01T16:30:38.800Z,84.70
2018-01-01T16:33:06.376Z,85.00
2018-01-01T16:35:33.893Z,86.00
2018-01-01T16:38:01.444Z,86.40
2018-01-01T16:40:29.005Z,87.00
2018-01-01T16:42:56.508Z,86.70
2018-01-01T16:45:24.905Z,87.30
2018-01-01T16:47:52.402Z,87.30
2018-01-01T16:50:20.726Z,88.40
2018-01-01T16:52:48.267Z,88.40
2018-01-01T16:55:15.843Z,90.40
2018-01-01T16:57:43.363Z,90.40
2018-01-01T17:00:10.912Z,90.10
2018-01-01T17:02:38.432Z,91.20
2018-01-01T17:05:06.019Z,90.80
2018-01-01T17:07:34.304Z,91.10
2018-01-01T17:10:02.597Z,91.10
2018-01-01T17:12:31.164Z,91.10
2018-01-01T17:14:58.688Z,91.50
2018-01-01T17:17:26.244Z,91.50
2018-01-01T17:19:54.521Z,91.30
2018-01-01T17:22:22.076Z,91.30
2018-01-01T17:24:49.602Z,91.30
2018-01-01T17:27:17.182Z,91.50
2018-01-01T17:29:44.697Z,91.80
2018-01-01T17:32:12.219Z,92.50
2018-01-01T17:34:39.780Z,92.80
2018-01-01T17:37:07.315Z,93.40
2018-01-01T17:39:34.927Z,93.60
2018-01-01T17:42:02.468Z,93.60
2018-01-01T17:44:30.808Z,93.60
2018-01-01T17:46:58.336Z,93.60
2018-01-01T17:49:26.664Z,93.40
2018-01-01T17:51:54.185Z,93.40
2018-01-01T17:54:21.733Z,93.20
2018-01-01T17:56:49.240Z,93.30
2018-01-01T17:59:16.814Z,93.60
2018-01-01T18:01:45.092Z,93.80
2018-01-01T18:04:12.731Z,93.80
2018-01-01T18:06:40.245Z,94.20
2018-01-01T18:09:08.587Z,93.70
2018-01-01T18:11:36.111Z,93.70
2018-01-01T18:14:04.383Z,94.00
2018-01-01T18:16:31.936Z,94.00
2018-01-01T18:18:59.466Z,94.40
2018-01-01T18:21:27.281Z,94.50
2018-01-01T18:23:55.604Z,94.40
2018-01-01T18:26:23.166Z,94.40
2018-01-01T18:28:50.675Z,95.00
2018-01-01T18:31:19.016Z,95.50
2018-01-01T18:33:46.537Z,95.50
2018-01-01T18:36:14.105Z,95.60
2018-01-01T18:38:42.384Z,95.70
2018-01-01T18:41:10.712Z,96.20
2018-01-01T18:43:38.231Z,96.20
2018-01-01T18:46:05.812Z,96.30
2018-01-01T18:48:33.328Z,96.60
2018-01-01T18:51:00.850Z,96.80
2018-01-01T18:53:28.440Z,97.10
2018-01-01T18:55:56.230Z,97.30
2018-01-01T18:58:23.785Z,97.60
2018-01-01T19:00:51.320Z,97.70
2018-01-01T19:03:18.938Z,97.90
2018-01-01T19:05:46.506Z,98.10
2018-01-01T19:08:14.845Z,98.20
2018-01-01T19:10:42.356Z,98.20
2018-01-01T19:13:09.904Z,98.20
2018-01-01T19:15:37.455Z,98.40
2018-01-01T19:18:05.036Z,98.70
2018-01-01T19:20:32.568Z,98.60
2018-01-01T19:23:00.082Z,98.70
2018-01-01T19:25:27.641Z,98.70
2018-01-01T19:27:55.164Z,98.80
2018-01-01T19:30:22.718Z,98.60
2018-01-01T19:32:50.229Z,98.60
2018-01-01T19:35:18.587Z,98.80
2018-01-01T19:37:46.097Z,98.80
2018-01-01T19:40:13.660Z,98.90
2018-01-01T19:42:41.935Z,99.10
2018-01-01T19:45:09.493Z,99.00
2018-01-01T19:47:37.026Z,99.00
2018-01-01T19:50:04.584Z,98.30
2018-01-01T19:52:32.108Z,97.30
2018-01-01T19:54:59.620Z,97.30
2018-01-01T19:57:27.192Z,97.70
2018-01-01T19:59:54.750Z,97.90
2018-01-01T20:02:23.103Z,98.20
2018-01-01T20:04:50.634Z,98.20
2018-01-01T20:07:18.208Z,98.20
2018-01-01T20:09:45.724Z,98.40
2018-01-01T20:12:13.276Z,98.40
2018-01-01T20:14:40.799Z,98.50
2018-01-01T20:17:08.355Z,98.50
2018-01-01T20:19:35.889Z,98.50
2018-01-01T20:22:03.464Z,98.70
2018-01-01T20:24:30.988Z,98.80
2018-01-01T20:26:59.325Z,99.00
2018-01-01T20:29:26.840Z,99.00
2018-01-01T20:31:54.351Z,99.00
2018-01-01T20:34:21.942Z,99.00
2018-01-01T20:36:49.508Z,98.90
2018-01-01T20:39:17.081Z,99.00
2018-01-01T20:41:44.628Z,99.00
2018-01-01T20:44:12.182Z,99.10
2018-01-01T20:46:40.476Z,98.90
2018-01-01T20:49:08.799Z,98.90
2018-01-01T20:51:36.333Z,98.80
2018-01-01T20:54:03.907Z,98.80
2018-01-01T20:56:32.184Z,99.00
2018-01-01T20:58:59.707Z,98.90
2018-01-01T21:01:27.276Z,99.00
2018-01-01T21:03:54.797Z,99.00
2018-01-01T21:06:22.382Z,99.00
2018-01-01T21:08:49.947Z,99.00
2018-01-01T21:11:17.511Z,99.30
2018-01-01T21:13:45.042Z,99.30
2018-01-01T21:16:12.621Z,99.40
2018-01-01T21:18:40.137Z,99.40
2018-01-01T21:21:07.714Z,99.50
2018-01-01T21:23:35.224Z,99.60
2018-01-01T21:26:02.789Z,99.70
2018-01-01T21:28:30.358Z,99.60
2018-01-01T21:30:57.871Z,99.10
2018-01-01T21:33:25.436Z,99.20
2018-01-01T21:35:52.968Z,99.50
2018-01-01T21:38:20.520Z,99.60
2018-01-01T21:40:48.844Z,98.50
2018-01-01T21:43:16.416Z,98.30
2018-01-01T21:45:43.925Z,97.60
2018-01-01T21:48:11.552Z,97.90
2018-01-01T21:50:39.080Z,97.80
2018-01-01T21:53:06.608Z,97.90
2018-01-01T21:55:34.159Z,97.80
2018-01-01T21:58:02.454Z,98.50
2018-01-01T22:00:30.047Z,98.50
2018-01-01T22:02:57.595Z,98.50
2018-01-01T22:05:25.177Z,98.50
2018-01-01T22:07:52.732Z,97.80
2018-01-01T22:10:20.308Z,97.80
2018-01-01T22:12:47.836Z,98.10
2018-01-01T22:15:15.486Z,98.00
2018-01-01T22:17:42.983Z,98.20
2018-01-01T22:20:10.570Z,98.40
2018-01-01T22:22:38.199Z,98.30
2018-01-01T22:25:05.752Z,98.20
2018-01-01T22:27:34.124Z,98.40
2018-01-01T22:30:02.455Z,98.50
2018-01-01T22:32:30.004Z,98.50
2018-01-01T22:34:57.596Z,98.30
2018-01-01T22:37:25.165Z,98.40
2018-01-01T22:39:52.700Z,98.60
2018-01-01T22:42:20.340Z,98.40
2018-01-01T22:44:47.885Z,98.50
2018-01-01T22:47:15.450Z,98.30
2018-01-01T22:49:43.024Z,98.50
2018-01-01T22:52:10.564Z,98.30
2018-01-01T22:54:38.648Z,98.40
2018-01-01T22:57:06.160Z,98.60
2018-01-01T22:59:33.710Z,98.60
2018-01-01T23:02:02.012Z,98.00
2018-01-01T23:04:29.582Z,98.00
2018-01-01T23:06:57.132Z,97.60
2018-01-01T23:09:24.687Z,97.60
2018-01-01T23:11:53.125Z,97.70
2018-01-01T23:14:20.699Z,98.00
2018-01-01T23:16:48.218Z,98.20
2018-01-01T23:19:15.745Z,98.70
2018-01-01T23:21:43.301Z,99.10
2018-01-01T23:24:11.590Z,99.50
2018-01-01T23:26:39.908Z,99.60
2018-01-01T23:29:07.421Z,99.60
2018-01-01T23:31:34.973Z,99.90
2018-01-01T23:34:02.484Z,99.90
2018-01-01T23:36:30.812Z,99.90
2018-01-01T23:38:58.334Z,99.90
2018-01-01T23:41:25.896Z,99.80
2018-01-01T23:43:53.408Z,99.40
2018-01-01T23:46:21.733Z,99.00
2018-01-01T23:48:49.649Z,99.00
2018-01-01T23:51:17.217Z,98.90
2018-01-01T23:53:44.765Z,98.90
2018-01-01T23:56:12.284Z,99.00
2018-01-01T23:58:39.856Z,98.70
